Time;durP1;ratioP1;P1;durP2;ratioP2;P2;SDS_P1;SDS_P2;PMS_P1;PMS_P2;Temp;Humidity;BMP_temperature;BMP_pressure;BME280_temperature;BME280_humidity;BME280_pressure;Samples;Min_cycle;Max_cycle;Signal;HPM_P1;HPM_P2
2022/05/04 00:02:13;;;;;;;9.65;2.63;;;10.80;81.00;;;;;;5075956;28;20039;-87
2022/05/04 00:04:46;;;;;;;6.18;2.38;;;10.90;81.10;;;;;;5077101;28;20028;-87
2022/05/04 00:07:24;;;;;;;6.53;2.67;;;10.90;81.00;;;;;;5076201;28;20032;-87
2022/05/04 00:10:00;;;;;;;9.50;2.90;;;10.90;81.00;;;;;;5093363;28;20036;-87
2022/05/04 00:12:29;;;;;;;7.38;2.65;;;10.90;81.00;;;;;;5092794;28;20093;-87
2022/05/04 00:15:00;;;;;;;9.52;3.15;;;10.90;80.90;;;;;;5093295;28;20020;-87
2022/05/04 00:17:32;;;;;;;11.05;3.30;;;10.90;80.90;;;;;;5092639;28;20035;-87
2022/05/04 00:20:02;;;;;;;10.07;2.70;;;10.80;80.80;;;;;;5093092;28;20030;-87
2022/05/04 00:22:34;;;;;;;5.73;2.80;;;10.80;80.90;;;;;;5076341;28;20043;-87
2022/05/04 00:25:08;;;;;;;6.70;2.85;;;10.80;81.50;;;;;;5076766;28;20028;-87
2022/05/04 00:27:37;;;;;;;7.10;2.97;;;10.70;80.90;;;;;;5076244;28;20036;-87
2022/05/04 00:30:04;;;;;;;7.55;2.70;;;10.70;81.00;;;;;;5092501;28;20020;-87
2022/05/04 00:32:33;;;;;;;7.13;2.45;;;10.70;80.90;;;;;;5092429;28;20026;-87
2022/05/04 00:35:04;;;;;;;7.93;2.50;;;10.80;81.00;;;;;;5076218;28;20077;-87
2022/05/04 00:37:35;;;;;;;9.15;2.85;;;10.80;80.90;;;;;;5092831;28;20045;-87
2022/05/04 00:40:11;;;;;;;6.53;2.47;;;10.80;80.80;;;;;;5076600;28;20020;-87
2022/05/04 00:42:49;;;;;;;10.88;2.70;;;10.80;80.80;;;;;;5093894;28;20016;-87
2022/05/04 00:45:23;;;;;;;4.65;2.50;;;10.80;80.70;;;;;;5076884;28;20480;-87
2022/05/04 00:48:00;;;;;;;8.43;2.72;;;10.80;80.80;;;;;;5092524;28;20036;-85
2022/05/04 00:50:31;;;;;;;7.57;2.53;;;10.70;80.80;;;;;;5092698;28;20085;-87
2022/05/04 00:53:07;;;;;;;6.18;2.75;;;10.70;80.90;;;;;;5059013;28;20016;-87
2022/05/04 00:56:00;;;;;;;7.35;2.80;;;10.70;80.90;;;;;;5060070;28;20460;-87
2022/05/04 01:01:13;;;;;;;11.18;3.33;;;10.70;80.90;;;;;;5093470;28;20039;-87
2022/05/04 01:03:49;;;;;;;7.20;2.75;;;10.70;80.80;;;;;;5076452;28;20024;-87
2022/05/04 01:06:21;;;;;;;6.30;2.50;;;10.60;80.80;;;;;;5093277;28;20032;-87
2022/05/04 01:08:57;;;;;;;5.15;2.20;;;10.70;80.90;;;;;;5093107;28;20533;-87
2022/05/04 01:11:36;;;;;;;8.75;2.70;;;10.70;80.90;;;;;;5093731;28;20134;-87
2022/05/04 01:14:15;;;;;;;5.82;2.47;;;10.60;80.80;;;;;;5100449;28;20011;-87
2022/05/04 01:16:44;;;;;;;7.30;2.65;;;10.60;80.90;;;;;;5113576;28;20054;-87
2022/05/04 01:19:12;;;;;;;6.28;2.80;;;10.60;80.90;;;;;;5114101;28;20062;-88
2022/05/04 01:21:41;;;;;;;8.50;2.70;;;10.60;80.90;;;;;;5115938;28;20032;-85
2022/05/04 01:24:46;;;;;;;10.30;2.80;;;10.60;81.00;;;;;;5119387;28;20024;-87
2022/05/04 01:27:31;;;;;;;4.32;2.33;;;10.60;81.00;;;;;;5106548;28;20032;-87
2022/05/04 01:30:04;;;;;;;5.88;2.47;;;10.60;81.00;;;;;;5082224;28;20117;-84
2022/05/04 01:32:36;;;;;;;6.90;2.70;;;10.60;81.00;;;;;;5097212;28;20089;-87
2022/05/04 01:35:15;;;;;;;9.40;2.67;;;10.60;81.10;;;;;;5096318;28;20027;-87
2022/05/04 01:37:46;;;;;;;7.47;2.58;;;10.60;81.00;;;;;;5096011;28;20408;-86
2022/05/04 01:40:15;;;;;;;5.43;2.40;;;10.50;81.00;;;;;;5079582;28;20036;-89
2022/05/04 01:42:43;;;;;;;6.25;2.25;;;10.50;81.10;;;;;;5079157;28;20023;-87
2022/05/04 01:45:17;;;;;;;8.40;2.50;;;10.50;81.10;;;;;;5095640;28;20028;-87
2022/05/04 01:47:52;;;;;;;11.15;2.90;;;10.60;81.00;;;;;;5095260;28;20099;-86
2022/05/04 01:50:25;;;;;;;4.47;2.47;;;10.60;80.80;;;;;;5095140;28;20017;-87
2022/05/04 01:52:51;;;;;;;7.22;2.53;;;10.50;80.80;;;;;;5095818;28;20372;-87
2022/05/04 01:55:20;;;;;;;4.55;2.38;;;10.50;80.80;;;;;;5077973;28;20085;-87
2022/05/04 01:57:51;;;;;;;6.88;2.60;;;10.50;80.80;;;;;;5095470;28;20119;-87
2022/05/04 02:00:25;;;;;;;5.03;2.40;;;10.50;80.70;;;;;;5095431;28;20039;-87
2022/05/04 02:02:58;;;;;;;7.00;2.67;;;10.40;80.80;;;;;;5079148;28;20273;-87
2022/05/04 02:05:24;;;;;;;7.35;2.90;;;10.40;80.80;;;;;;5095178;28;20024;-87
2022/05/04 02:07:55;;;;;;;7.88;2.85;;;10.40;80.80;;;;;;5095066;28;20073;-87
2022/05/04 02:10:41;;;;;;;10.70;2.33;;;10.40;80.80;;;;;;5077584;28;20035;-87
2022/05/04 02:13:11;;;;;;;5.82;2.15;;;10.40;80.70;;;;;;5095004;28;20068;-87
2022/05/04 02:15:38;;;;;;;7.03;2.58;;;10.40;80.80;;;;;;5078401;28;20024;-86
2022/05/04 02:18:06;;;;;;;6.10;2.40;;;10.40;80.80;;;;;;5094872;28;20031;-87
2022/05/04 02:20:48;;;;;;;8.32;2.95;;;10.40;80.80;;;;;;5077817;28;20032;-87
2022/05/04 02:23:16;;;;;;;8.50;2.63;;;10.40;80.70;;;;;;5079025;28;20115;-87
2022/05/04 02:25:52;;;;;;;;;;;;;;;;;;;;;
2022/05/04 02:28:43;;;;;;;7.68;2.47;;;10.40;80.90;;;;;;5095871;28;20038;-87
2022/05/04 02:31:11;;;;;;;10.80;2.78;;;10.40;80.90;;;;;;5094848;28;20028;-87
2022/05/04 02:33:50;;;;;;;;;;;;;;;;;;;;;
2022/05/04 02:39:10;;;;;;;6.07;2.22;;;10.30;80.90;;;;;;5095328;28;20063;-87
2022/05/04 02:41:48;;;;;;;;;;;;;;;;;;;;;
2022/05/04 02:44:21;;;;;;;8.40;2.85;;;10.30;80.80;;;;;;5095491;28;20031;-87
2022/05/04 02:46:50;;;;;;;7.72;2.90;;;10.30;80.80;;;;;;5095606;28;20028;-87
2022/05/04 02:49:21;;;;;;;6.32;2.50;;;10.30;80.80;;;;;;5094741;28;20040;-87
2022/05/04 02:51:56;;;;;;;8.23;2.28;;;10.30;80.80;;;;;;5095342;28;20031;-87
2022/05/04 02:54:24;;;;;;;9.75;3.10;;;10.30;80.90;;;;;;5112765;28;20046;-89
2022/05/04 02:56:56;;;;;;;6.45;2.67;;;10.20;80.70;;;;;;5118977;28;20012;-88
2022/05/04 02:59:22;;;;;;;8.05;2.97;;;10.30;80.80;;;;;;5118829;28;20024;-89
2022/05/04 03:04:35;;;;;;;6.80;2.50;;;10.20;80.70;;;;;;5098015;28;20122;-87
2022/05/04 03:07:09;;;;;;;8.00;2.53;;;10.10;80.70;;;;;;5094471;28;20024;-87
2022/05/04 03:09:40;;;;;;;6.85;2.15;;;10.10;80.70;;;;;;5061874;28;20036;-87
2022/05/04 03:12:24;;;;;;;8.45;3.15;;;10.10;80.80;;;;;;5076605;28;20098;-86
2022/05/04 03:14:57;;;;;;;9.23;2.67;;;10.10;80.90;;;;;;5093730;28;20061;-87
2022/05/04 03:17:27;;;;;;;8.50;2.50;;;10.10;80.80;;;;;;5093057;28;20383;-88
2022/05/04 03:20:20;;;;;;;4.75;2.42;;;10.00;80.80;;;;;;5074701;28;20369;-87
2022/05/04 03:23:06;;;;;;;6.97;2.47;;;10.00;80.80;;;;;;5093434;28;20035;-87
2022/05/04 03:25:40;;;;;;;6.35;2.45;;;10.00;80.80;;;;;;5060659;28;20023;-87
2022/05/04 03:28:23;;;;;;;;;;;;;;;;;;;;;
2022/05/04 03:34:22;;;;;;;8.18;2.60;;;10.10;81.00;;;;;;5090275;28;20024;-87
2022/05/04 03:37:23;;;;;;;;;;;;;;;;;;;;;
2022/05/04 03:39:55;;;;;;;7.25;2.60;;;10.10;81.00;;;;;;5089590;28;20496;-87
2022/05/04 03:42:50;;;;;;;7.55;2.38;;;10.10;81.00;;;;;;5092705;28;20035;-87
2022/05/04 03:45:37;;;;;;;;;;;;;;;;;;;;;
2022/05/04 03:48:12;;;;;;;10.80;3.20;;;10.00;80.80;;;;;;5094225;28;20036;-87
2022/05/04 03:50:47;;;;;;;5.65;2.63;;;10.10;80.80;;;;;;5076786;28;20032;-87
2022/05/04 03:53:31;;;;;;;;;;;;;;;;;;;;;
2022/05/04 03:56:07;;;;;;;5.68;2.80;;;10.00;80.90;;;;;;5094109;28;20091;-87
2022/05/04 03:58:45;;;;;;;8.20;2.70;;;10.00;81.00;;;;;;5093191;28;20086;-87
2022/05/04 04:01:17;;;;;;;8.30;3.00;;;10.00;81.10;;;;;;5093164;28;20036;-87
2022/05/04 04:03:54;;;;;;;10.38;3.35;;;10.00;81.10;;;;;;5094628;28;20016;-87
2022/05/04 04:09:26;;;;;;;7.25;2.92;;;9.90;81.10;;;;;;5086845;28;20100;-87
2022/05/04 04:11:57;;;;;;;4.90;2.70;;;9.90;81.20;;;;;;5093637;28;20561;-87
2022/05/04 04:15:01;;;;;;;;;;;;;;;;;;;;;
2022/05/04 04:17:39;;;;;;;5.97;2.50;;;9.90;81.20;;;;;;5093408;28;20032;-87
2022/05/04 04:22:52;;;;;;;8.65;2.92;;;9.80;81.10;;;;;;5096861;28;20078;-87
2022/05/04 04:28:20;;;;;;;5.80;2.70;;;9.80;81.30;;;;;;5113164;28;20024;-88
2022/05/04 04:31:14;;;;;;;6.03;3.10;;;9.80;81.30;;;;;;5113186;28;20054;-87
2022/05/04 04:33:50;;;;;;;;;;;;;;;;;;;;;
2022/05/04 04:36:20;;;;;;;8.13;2.40;;;9.90;81.20;;;;;;5115496;28;20020;-86
2022/05/04 04:38:46;;;;;;;7.70;2.33;;;9.90;81.20;;;;;;5109993;28;20051;-87
2022/05/04 04:41:17;;;;;;;6.45;2.70;;;9.90;81.20;;;;;;5093781;28;20019;-86
2022/05/04 04:43:51;;;;;;;8.27;2.53;;;9.80;81.20;;;;;;5093921;28;20020;-90
2022/05/04 04:46:20;;;;;;;6.20;2.80;;;9.80;81.10;;;;;;5060971;28;20380;-88
2022/05/04 04:48:59;;;;;;;7.25;2.65;;;9.80;81.20;;;;;;5076737;28;20032;-88
2022/05/04 04:51:42;;;;;;;5.97;2.78;;;9.80;81.30;;;;;;5076560;28;20392;-88
2022/05/04 04:54:22;;;;;;;6.97;2.70;;;9.80;81.30;;;;;;5094333;28;20042;-88
2022/05/04 04:57:02;;;;;;;7.25;2.88;;;9.80;81.30;;;;;;5078312;28;20129;-88
2022/05/04 04:59:55;;;;;;;;;;;;;;;;;;;;;
2022/05/04 05:02:26;;;;;;;7.85;3.05;;;9.70;81.30;;;;;;5082956;28;20032;-88
2022/05/04 05:05:02;;;;;;;6.05;2.92;;;9.70;81.40;;;;;;5079826;28;20149;-88
2022/05/04 05:07:33;;;;;;;9.55;2.50;;;9.60;81.50;;;;;;5096783;28;20035;-87
2022/05/04 05:10:02;;;;;;;11.65;3.00;;;9.70;81.50;;;;;;5096745;28;20024;-88
2022/05/04 05:12:51;;;;;;;11.00;3.08;;;9.60;82.20;;;;;;5079157;28;20068;-88
2022/05/04 05:18:20;;;;;;;7.18;2.92;;;9.60;81.60;;;;;;5097990;28;20050;-88
2022/05/04 05:21:14;;;;;;;8.20;2.53;;;9.60;81.60;;;;;;5096337;28;20039;-88
2022/05/04 05:23:45;;;;;;;6.97;3.00;;;9.60;81.60;;;;;;5080886;28;20020;-88
2022/05/04 05:26:24;;;;;;;6.72;2.55;;;9.60;81.60;;;;;;5080623;28;20024;-88
2022/05/04 05:29:02;;;;;;;;;;;;;;;;;;;;;
2022/05/04 05:31:49;;;;;;;6.68;3.10;;;9.70;81.80;;;;;;5096773;28;20494;-89
2022/05/04 05:34:31;;;;;;;6.45;2.95;;;9.70;81.70;;;;;;5080667;28;20148;-89
2022/05/04 05:37:17;;;;;;;;;;;;;;;;;;;;;
2022/05/04 05:40:01;;;;;;;;;;;;;;;;;;;;;
2022/05/04 05:42:42;;;;;;;;;;;;;;;;;;;;;
2022/05/04 05:45:18;;;;;;;6.60;3.10;;;9.60;81.70;;;;;;5096877;28;20030;-88
2022/05/04 05:47:53;;;;;;;8.27;2.97;;;9.60;81.80;;;;;;5080240;28;20040;-88
2022/05/04 05:50:33;;;;;;;6.68;3.10;;;9.70;81.70;;;;;;5096548;28;20114;-89
2022/05/04 05:56:00;;;;;;;6.95;3.35;;;9.70;81.50;;;;;;5077517;28;20476;-88
2022/05/04 05:58:36;;;;;;;8.75;3.13;;;9.70;81.50;;;;;;5099955;28;20028;-88
2022/05/04 06:01:09;;;;;;;6.85;3.60;;;9.70;81.50;;;;;;5110435;28;20031;-88
2022/05/04 06:03:52;;;;;;;7.78;3.33;;;9.70;81.40;;;;;;5099234;28;20079;-88
2022/05/04 06:06:23;;;;;;;6.35;2.78;;;9.80;81.40;;;;;;5113040;28;20028;-87
2022/05/04 06:08:56;;;;;;;9.82;3.50;;;9.80;81.30;;;;;;5107662;28;20028;-88
2022/05/04 06:11:24;;;;;;;6.30;3.33;;;9.80;81.20;;;;;;5087332;28;20050;-88
2022/05/04 06:13:53;;;;;;;9.68;3.50;;;9.90;81.20;;;;;;5070579;28;20027;-88
2022/05/04 06:16:28;;;;;;;10.52;3.40;;;9.90;81.00;;;;;;5117354;28;20028;-87
2022/05/04 06:18:54;;;;;;;6.85;2.88;;;9.90;80.90;;;;;;5098606;28;20490;-87
2022/05/04 06:21:23;;;;;;;8.18;2.80;;;9.90;80.90;;;;;;5098486;28;20024;-88
2022/05/04 06:23:57;;;;;;;9.73;3.47;;;10.00;80.90;;;;;;5098120;28;20081;-87
2022/05/04 06:26:43;;;;;;;10.15;3.58;;;10.00;80.70;;;;;;5098411;28;20069;-88
2022/05/04 06:29:27;;;;;;;;;;;;;;;;;;;;;
2022/05/04 06:34:55;;;;;;;;;;;;;;;;;;;;;
2022/05/04 06:37:23;;;;;;;7.80;2.90;;;10.10;80.50;;;;;;5116658;28;20050;-88
2022/05/04 06:39:53;;;;;;;7.25;3.28;;;10.20;80.50;;;;;;5098035;28;20463;-89
2022/05/04 06:42:30;;;;;;;6.03;2.83;;;10.20;80.50;;;;;;5098482;28;20073;-88
2022/05/04 06:45:03;;;;;;;6.35;2.83;;;10.30;80.50;;;;;;5098085;28;20323;-88
2022/05/04 06:47:29;;;;;;;6.40;2.90;;;10.30;80.20;;;;;;5081026;28;20031;-89
2022/05/04 06:50:17;;;;;;;5.93;2.92;;;10.40;80.00;;;;;;5097786;28;20076;-88
2022/05/04 06:52:47;;;;;;;11.02;2.90;;;10.50;80.00;;;;;;5098052;28;20432;-89
2022/05/04 06:55:20;;;;;;;7.32;2.65;;;10.50;79.90;;;;;;5097949;28;20030;-89
2022/05/04 06:57:51;;;;;;;7.63;2.95;;;10.60;79.90;;;;;;5081868;28;20031;-88
2022/05/04 07:00:19;;;;;;;7.90;2.83;;;10.60;79.80;;;;;;5098340;28;20019;-88
2022/05/04 07:03:05;;;;;;;7.18;3.10;;;10.70;79.80;;;;;;5081214;28;20027;-89
2022/05/04 07:05:43;;;;;;;7.35;2.72;;;10.80;79.80;;;;;;5081425;28;20020;-89
2022/05/04 07:08:36;;;;;;;7.30;2.72;;;10.80;79.50;;;;;;5082400;28;20038;-88
2022/05/04 07:11:02;;;;;;;8.05;3.85;;;10.90;79.20;;;;;;5084323;28;20027;-88
2022/05/04 07:13:41;;;;;;;9.75;3.60;;;10.90;78.90;;;;;;5094102;28;20055;-88
2022/05/04 07:22:52;;;;;;;;;;;11.10;78.90;;;;;;5053363;28;20020;-89
2022/05/04 07:25:22;;;;;;;6.05;2.33;;;11.10;78.60;;;;;;5035697;28;19912;-89
2022/05/04 07:27:57;;;;;;;6.65;2.63;;;11.20;78.60;;;;;;5036652;28;20036;-89
2022/05/04 07:30:34;;;;;;;7.20;2.78;;;11.20;78.40;;;;;;5060686;28;20483;-88
2022/05/04 07:33:02;;;;;;;7.00;2.30;;;11.30;78.50;;;;;;5061476;28;20059;-88
2022/05/04 07:35:41;;;;;;;7.88;2.70;;;11.40;78.60;;;;;;5078852;28;20032;-88
2022/05/04 07:38:40;;;;;;;6.88;2.63;;;11.40;78.60;;;;;;5096626;28;20024;-88
2022/05/04 07:47:08;;;;;;;5.85;2.63;;;11.70;77.50;;;;;;5113479;28;20024;-87
2022/05/04 07:50:29;;;;;;;;;;;;;;;;;;;;;
2022/05/04 07:53:27;;;;;;;7.43;3.28;;;11.70;77.50;;;;;;5106712;28;20064;-88
2022/05/04 07:56:10;;;;;;;6.10;2.75;;;11.80;77.20;;;;;;5095229;28;20027;-88
2022/05/04 08:06:13;;;;;;;6.10;2.60;;;11.90;77.00;;;;;;5056126;28;20420;-89
2022/05/04 08:08:47;;;;;;;5.63;2.60;;;12.00;77.30;;;;;;5071649;28;20039;-88
2022/05/04 08:11:29;;;;;;;5.32;2.72;;;12.10;77.10;;;;;;5072741;28;20106;-90
2022/05/04 08:14:21;;;;;;;5.22;2.58;;;12.10;76.90;;;;;;5073583;28;20040;-88
2022/05/04 08:17:03;;;;;;;7.68;2.90;;;12.20;76.90;;;;;;5067304;28;20392;-89
2022/05/04 08:19:55;;;;;;;4.57;2.45;;;12.30;76.70;;;;;;5062015;28;20029;-87
2022/05/04 08:22:25;;;;;;;6.60;2.50;;;12.40;76.50;;;;;;5073102;28;20017;-88
2022/05/04 08:25:24;;;;;;;;;;;;;;;;;;;;;
2022/05/04 08:28:13;;;;;;;4.50;2.72;;;12.50;76.60;;;;;;5074619;28;20040;-87
2022/05/04 08:30:57;;;;;;;6.10;2.30;;;12.60;76.40;;;;;;5071915;28;20396;-87
2022/05/04 08:33:40;;;;;;;5.72;2.55;;;12.70;76.40;;;;;;5077135;28;20115;-87
2022/05/04 08:36:14;;;;;;;5.43;2.90;;;12.80;76.30;;;;;;5077655;28;20036;-86
2022/05/04 08:39:03;;;;;;;5.43;2.40;;;12.90;76.30;;;;;;5077741;28;20048;-86
2022/05/04 08:41:46;;;;;;;;;;;;;;;;;;;;;
2022/05/04 08:44:50;;;;;;;5.28;2.25;;;13.00;76.20;;;;;;5083802;28;20103;-88
2022/05/04 08:47:32;;;;;;;8.82;2.75;;;13.10;76.00;;;;;;5079405;28;20115;-90
2022/05/04 08:50:22;;;;;;;4.85;2.65;;;13.20;75.80;;;;;;5077775;28;20024;-90
2022/05/04 08:53:02;;;;;;;6.87;3.00;;;13.20;75.40;;;;;;5076445;28;20041;-87
2022/05/04 08:55:34;;;;;;;5.97;2.42;;;13.30;75.20;;;;;;5061982;28;20773;-87
2022/05/04 08:58:02;;;;;;;5.40;2.30;;;13.30;74.80;;;;;;5078106;28;20051;-87
2022/05/04 09:00:43;;;;;;;7.13;2.50;;;13.40;74.40;;;;;;5063893;28;20476;-87
2022/05/04 09:03:28;;;;;;;5.45;2.30;;;13.40;73.80;;;;;;5072598;28;20036;-87
2022/05/04 09:05:59;;;;;;;5.45;2.30;;;13.50;74.00;;;;;;5061895;28;20047;-87
2022/05/04 09:08:37;;;;;;;;;;;;;;;;;;;;;
2022/05/04 09:11:15;;;;;;;7.60;2.60;;;13.60;74.10;;;;;;5092994;28;20044;-87
2022/05/04 09:14:05;;;;;;;6.03;2.35;;;13.60;72.50;;;;;;5091251;28;20027;-87
2022/05/04 09:16:34;;;;;;;5.63;2.53;;;13.60;73.00;;;;;;5097920;28;20029;-86
2022/05/04 09:22:18;;;;;;;4.55;2.20;;;13.70;73.60;;;;;;5089026;28;20033;-86
2022/05/04 09:27:56;;;;;;;5.50;2.58;;;13.80;73.50;;;;;;5097748;28;20063;-85
2022/05/04 09:30:38;;;;;;;;;;;;;;;;;;;;;
2022/05/04 09:33:18;;;;;;;3.67;2.00;;;14.00;73.40;;;;;;5100902;28;20028;-87
2022/05/04 09:36:17;;;;;;;;;;;;;;;;;;;;;
2022/05/04 09:46:43;;;;;;;;;;;;;;;;;;;;;
2022/05/04 09:49:48;;;;;;;;;;;;;;;;;;;;;
2022/05/04 09:52:49;;;;;;;;;;;;;;;;;;;;;
2022/05/04 09:55:45;;;;;;;4.47;2.22;;;14.50;72.60;;;;;;5078976;28;20123;-88
2022/05/04 10:11:58;;;;;;;;;;;;;;;;;;;;;
2022/05/04 10:14:35;;;;;;;3.65;2.08;;;14.80;72.10;;;;;;5077689;28;19918;-91
2022/05/04 10:17:25;;;;;;;4.47;2.53;;;14.90;72.00;;;;;;5060785;28;20029;-92
2022/05/04 10:20:49;;;;;;;7.25;2.75;;;14.90;72.00;;;;;;5067226;28;20045;-92
2022/05/04 10:23:59;;;;;;;4.07;2.50;;;15.10;71.80;;;;;;5016879;28;20472;-92
2022/05/04 10:33:26;;;;;;;6.40;3.72;;;15.20;69.60;;;;;;5055967;28;20074;-94
2022/05/04 10:40:04;;;;;;;;;;;;;;;;;;;;;
2022/05/04 10:43:26;;;;;;;;;;;;;;;;;;;;;
2022/05/04 10:47:06;;;;;;;6.72;3.60;;;15.30;70.10;;;;;;5077632;28;20028;-92
2022/05/04 10:50:07;;;;;;;;;;;;;;;;;;;;;
2022/05/04 10:52:50;;;;;;;5.55;3.70;;;15.50;70.00;;;;;;4974155;28;20043;-93
2022/05/04 10:55:39;;;;;;;7.05;3.60;;;15.50;69.80;;;;;;4994155;28;20045;-92
2022/05/04 10:58:54;;;;;;;6.55;3.80;;;15.60;69.80;;;;;;5041914;28;20037;-93
2022/05/04 11:05:16;;;;;;;5.57;3.22;;;15.70;70.00;;;;;;5036027;28;20088;-94
2022/05/04 11:08:43;;;;;;;4.90;3.22;;;15.70;69.70;;;;;;5011869;28;20040;-95
2022/05/04 11:11:48;;;;;;;7.35;3.15;;;15.80;69.90;;;;;;5039841;28;20041;-94
2022/05/04 11:25:45;;;;;;;;;;;;;;;;;;;;;
2022/05/04 11:32:45;;;;;;;;;;;;;;;;;;;;;
2022/05/04 11:36:06;;;;;;;6.57;4.10;;;16.20;68.40;;;;;;5075406;28;20031;-95
2022/05/04 11:48:28;;;;;;;5.78;3.65;;;16.30;68.80;;;;;;5076952;28;19942;-95
2022/05/04 11:54:34;;;;;;;5.85;3.92;;;16.40;68.10;;;;;;5085439;28;20032;-96
2022/05/04 12:03:54;;;;;;;;;;;;;;;;;;;;;
2022/05/04 12:06:49;;;;;;;;;;;;;;;;;;;;;
2022/05/04 12:10:09;;;;;;;;;;;;;;;;;;;;;
2022/05/04 12:12:49;;;;;;;7.13;3.97;;;16.80;66.30;;;;;;5043551;28;20070;-96
2022/05/04 12:16:13;;;;;;;4.68;3.72;;;16.80;66.30;;;;;;5074338;28;20460;-95
2022/05/04 12:19:58;;;;;;;;;;;;;;;;;;;;;
2022/05/04 12:23:06;;;;;;;;;;;;;;;;;;;;;
2022/05/04 12:39:53;;;;;;;6.90;3.15;;;17.10;65.20;;;;;;5000924;28;20494;-96
2022/05/04 12:43:22;;;;;;;;;;;;;;;;;;;;;
2022/05/04 12:46:15;;;;;;;;;;;;;;;;;;;;;
2022/05/04 13:05:21;;;;;;;6.00;3.70;;;17.40;64.30;;;;;;5084360;28;20024;-89
2022/05/04 13:08:30;;;;;;;;;;;;;;;;;;;;;
2022/05/04 13:11:37;;;;;;;;;;;;;;;;;;;;;
2022/05/04 13:14:33;;;;;;;;;;;;;;;;;;;;;
2022/05/04 13:17:05;;;;;;;7.18;4.00;;;17.60;63.50;;;;;;5077244;28;20127;-92
2022/05/04 13:19:39;;;;;;;6.88;4.03;;;17.60;63.80;;;;;;5077803;28;20035;-90
2022/05/04 13:22:14;;;;;;;7.18;3.92;;;17.70;63.50;;;;;;5061957;28;20460;-92
2022/05/04 13:24:49;;;;;;;7.13;3.90;;;17.70;63.20;;;;;;5077437;28;20027;-93
2022/05/04 13:27:40;;;;;;;5.38;3.58;;;17.80;62.80;;;;;;5061337;28;20029;-92
2022/05/04 13:30:45;;;;;;;;;;;;;;;;;;;;;
2022/05/04 13:33:54;;;;;;;;;;;;;;;;;;;;;
2022/05/04 13:36:48;;;;;;;6.93;3.13;;;17.90;62.00;;;;;;5078608;28;20464;-96
2022/05/04 13:40:00;;;;;;;7.45;3.50;;;17.90;62.10;;;;;;5077902;28;20468;-95
2022/05/04 13:43:24;;;;;;;6.00;3.60;;;18.00;62.00;;;;;;5077711;28;20379;-96
2022/05/04 13:46:21;;;;;;;7.10;2.90;;;18.00;61.80;;;;;;5076478;28;20491;-96
2022/05/04 13:56:11;;;;;;;;;;;;;;;;;;;;;
2022/05/04 14:15:56;;;;;;;;;;;;;;;;;;;;;
2022/05/04 14:22:20;;;;;;;6.05;3.45;;;18.30;60.00;;;;;;5012791;28;20067;-95
2022/05/04 14:28:22;;;;;;;;;;;;;;;;;;;;;
2022/05/04 14:34:24;;;;;;;4.60;3.10;;;18.30;59.30;;;;;;5002337;28;20089;-95
2022/05/04 14:37:17;;;;;;;;;;;;;;;;;;;;;
2022/05/04 14:40:36;;;;;;;;;;;;;;;;;;;;;
2022/05/04 14:47:03;;;;;;;3.83;2.58;;;18.50;59.10;;;;;;5070042;28;20032;-96
2022/05/04 14:56:26;;;;;;;;;;;;;;;;;;;;;
2022/05/04 14:59:08;;;;;;;;;;;;;;;;;;;;;
2022/05/04 15:01:57;;;;;;;;;;;;;;;;;;;;;
2022/05/04 15:08:00;;;;;;;8.15;4.40;;;18.70;60.00;;;;;;5095417;28;20491;-94
2022/05/04 15:14:21;;;;;;;;;;;;;;;;;;;;;
2022/05/04 15:17:25;;;;;;;6.68;4.55;;;18.60;59.30;;;;;;5079884;28;20444;-91
2022/05/04 15:20:03;;;;;;;;;;;;;;;;;;;;;
2022/05/04 15:22:48;;;;;;;6.75;4.20;;;18.50;59.60;;;;;;5076055;28;20027;-92
2022/05/04 15:25:22;;;;;;;6.63;4.43;;;18.50;59.90;;;;;;5075287;28;20028;-92
2022/05/04 15:28:34;;;;;;;;;;;;;;;;;;;;;
2022/05/04 15:34:08;;;;;;;8.30;4.82;;;18.40;60.00;;;;;;5075969;28;20033;-94
2022/05/04 15:36:54;;;;;;;8.23;5.30;;;18.40;60.00;;;;;;5075167;28;20028;-92
2022/05/04 15:40:10;;;;;;;;;;;;;;;;;;;;;
2022/05/04 15:43:17;;;;;;;6.45;4.32;;;18.40;59.80;;;;;;5075262;28;20055;-94
2022/05/04 15:46:11;;;;;;;9.48;4.45;;;18.30;59.60;;;;;;5061813;28;20052;-94
2022/05/04 15:48:57;;;;;;;;;;;;;;;;;;;;;
2022/05/04 15:54:23;;;;;;;5.35;4.13;;;18.50;60.00;;;;;;5034501;28;20029;-94
2022/05/04 15:56:56;;;;;;;6.90;4.10;;;18.60;60.20;;;;;;5068468;28;20086;-94
2022/05/04 16:00:01;;;;;;;;;;;;;;;;;;;;;
2022/05/04 16:05:58;;;;;;;8.07;5.10;;;18.80;60.60;;;;;;5075731;28;20530;-93
2022/05/04 16:08:43;;;;;;;6.50;5.10;;;18.80;60.70;;;;;;5065873;28;20032;-95
2022/05/04 16:11:48;;;;;;;;;;;;;;;;;;;;;
2022/05/04 16:23:43;;;;;;;6.55;4.50;;;18.90;60.00;;;;;;5076453;28;20107;-94
2022/05/04 16:26:34;;;;;;;10.68;5.07;;;18.90;59.90;;;;;;5059396;28;20035;-94
2022/05/04 16:29:41;;;;;;;5.78;4.10;;;18.90;59.60;;;;;;5061149;28;20037;-93
2022/05/04 16:32:42;;;;;;;;;;;;;;;;;;;;;
2022/05/04 16:35:47;;;;;;;;;;;;;;;;;;;;;
2022/05/04 16:38:38;;;;;;;6.40;4.53;;;18.70;58.80;;;;;;5076049;28;20032;-92
2022/05/04 16:41:52;;;;;;;7.78;5.00;;;18.60;58.90;;;;;;5074247;28;20037;-94
2022/05/04 16:44:19;;;;;;;7.00;4.25;;;18.50;58.80;;;;;;5069429;28;20404;-95
2022/05/04 16:46:55;;;;;;;7.75;4.50;;;18.40;58.80;;;;;;5075068;28;20025;-94
2022/05/04 16:49:35;;;;;;;8.70;4.82;;;18.30;58.50;;;;;;5077520;28;20464;-93
2022/05/04 16:52:37;;;;;;;8.43;4.55;;;18.20;58.70;;;;;;5080638;28;20020;-93
2022/05/04 16:55:17;;;;;;;8.07;5.03;;;18.20;59.00;;;;;;5087807;28;20012;-93
2022/05/04 16:57:48;;;;;;;8.70;5.65;;;18.10;59.20;;;;;;5101648;28;20009;-93
2022/05/04 17:03:21;;;;;;;6.00;4.13;;;18.00;59.60;;;;;;5072904;28;19904;-92
2022/05/04 17:06:03;;;;;;;11.63;4.80;;;18.00;59.90;;;;;;5080357;28;20028;-91
2022/05/04 17:11:43;;;;;;;;;;;;;;;;;;;;;
2022/05/04 17:14:41;;;;;;;5.82;4.70;;;17.90;59.60;;;;;;5099253;28;20026;-92
2022/05/04 17:17:09;;;;;;;8.77;4.70;;;17.90;59.70;;;;;;5075601;28;20036;-91
2022/05/04 17:19:52;;;;;;;7.15;4.65;;;17.80;59.70;;;;;;5080957;28;20103;-89
2022/05/04 17:22:31;;;;;;;;;;;;;;;;;;;;;
2022/05/04 17:25:03;;;;;;;7.85;4.30;;;17.80;59.90;;;;;;5099264;28;20089;-91
2022/05/04 17:27:38;;;;;;;6.20;4.35;;;17.80;60.00;;;;;;5083418;28;20028;-90
2022/05/04 17:30:27;;;;;;;6.28;4.30;;;17.80;60.30;;;;;;5082562;28;20024;-88
2022/05/04 17:39:07;;;;;;;8.52;4.35;;;17.80;60.50;;;;;;5091893;28;20023;-90
2022/05/04 17:41:35;;;;;;;9.13;3.38;;;17.80;60.10;;;;;;5097774;28;20034;-91
2022/05/04 17:44:06;;;;;;;6.07;3.25;;;17.70;59.90;;;;;;5114571;28;20020;-91
2022/05/04 17:46:39;;;;;;;;;;;17.70;59.70;;;;;;5079811;28;20038;-89
2022/05/04 17:49:17;;;;;;;7.18;3.00;;;17.60;59.80;;;;;;5087748;28;19912;-91
2022/05/04 17:52:38;;;;;;;5.53;2.55;;;17.50;59.90;;;;;;5082344;28;20020;-91
2022/05/04 18:04:32;;;;;;;;;;;;;;;;;;;;;
2022/05/04 18:10:49;;;;;;;5.60;2.67;;;17.30;60.50;;;;;;5100798;28;20462;-92
2022/05/04 18:13:17;;;;;;;6.20;3.03;;;17.20;61.20;;;;;;5066552;28;20094;-92
2022/05/04 18:15:59;;;;;;;5.78;3.20;;;17.20;60.60;;;;;;5080490;28;20376;-92
2022/05/04 18:19:05;;;;;;;;;;;;;;;;;;;;;
2022/05/04 18:21:45;;;;;;;5.07;2.58;;;17.00;60.70;;;;;;5098435;28;20034;-91
2022/05/04 18:24:46;;;;;;;;;;;;;;;;;;;;;
2022/05/04 18:27:18;;;;;;;;;;;16.90;61.00;;;;;;5098671;28;20024;-92
2022/05/04 18:30:00;;;;;;;4.75;3.30;;;16.80;61.10;;;;;;5063102;28;20011;-92
2022/05/04 18:38:43;;;;;;;9.77;3.53;;;16.60;61.50;;;;;;5036053;28;20032;-91
2022/05/04 18:41:13;;;;;;;5.22;2.80;;;16.50;61.70;;;;;;5058169;28;20033;-91
2022/05/04 18:43:53;;;;;;;5.50;2.60;;;16.40;61.90;;;;;;5064137;28;20028;-92
2022/05/04 18:46:27;;;;;;;6.90;2.92;;;16.40;62.20;;;;;;5082245;28;20012;-92
2022/05/04 18:49:28;;;;;;;7.78;3.55;;;16.30;62.30;;;;;;5102831;28;20096;-90
2022/05/04 18:58:59;;;;;;;;;;;;;;;;;;;;;
2022/05/04 19:01:30;;;;;;;6.72;3.42;;;15.90;62.70;;;;;;5077639;28;20033;-92
2022/05/04 19:07:18;;;;;;;8.27;4.28;;;15.80;63.00;;;;;;5097289;28;20027;-91
2022/05/04 19:09:53;;;;;;;7.20;3.00;;;15.60;63.00;;;;;;5077922;28;20032;-93
2022/05/04 19:12:30;;;;;;;8.07;3.08;;;15.60;63.10;;;;;;5078049;28;20048;-92
2022/05/04 19:15:13;;;;;;;5.53;3.05;;;15.60;63.20;;;;;;5062159;28;20139;-92
2022/05/04 19:17:57;;;;;;;6.28;3.25;;;15.50;63.40;;;;;;5078766;28;20024;-91
2022/05/04 19:20:41;;;;;;;4.95;2.88;;;15.50;63.40;;;;;;5078503;28;20020;-92
2022/05/04 19:23:10;;;;;;;6.82;3.03;;;15.40;63.40;;;;;;5078145;28;20401;-92
2022/05/04 19:25:43;;;;;;;6.07;2.95;;;15.40;63.50;;;;;;5078398;28;20024;-92
2022/05/04 19:28:16;;;;;;;7.78;3.85;;;15.40;63.70;;;;;;5078199;28;20467;-93
2022/05/04 19:30:47;;;;;;;6.30;3.42;;;15.30;63.80;;;;;;5062373;28;20028;-91
2022/05/04 19:33:21;;;;;;;;;;;15.30;63.90;;;;;;5078171;28;20031;-91
2022/05/04 19:35:58;;;;;;;4.45;2.85;;;15.30;64.00;;;;;;5078536;28;19904;-92
2022/05/04 19:38:32;;;;;;;5.10;2.92;;;15.20;64.00;;;;;;5078331;28;20016;-92
2022/05/04 19:41:06;;;;;;;7.45;3.60;;;15.20;64.00;;;;;;5077844;28;20063;-92
2022/05/04 19:43:40;;;;;;;5.22;3.25;;;15.10;64.20;;;;;;5078217;28;20470;-91
2022/05/04 19:46:08;;;;;;;4.95;2.97;;;15.10;64.30;;;;;;5078330;28;20017;-92
2022/05/04 19:48:40;;;;;;;8.93;3.22;;;15.00;64.40;;;;;;5061410;28;20032;-91
2022/05/04 19:51:05;;;;;;;6.10;3.70;;;15.00;64.50;;;;;;5061950;28;20110;-91
2022/05/04 19:53:45;;;;;;;7.82;3.97;;;15.00;64.70;;;;;;5078049;28;20050;-93
2022/05/04 19:56:13;;;;;;;6.03;3.80;;;14.90;64.80;;;;;;5077859;28;20023;-92